• Join FlightAware (Why Join?)
  • Login
  • US Flag 
06:30PM EST


 

Airport Tracker/Info


-or-


 

Live Flight TrackerFlight Track Log ✈ FLG4099 ✈ 21-Jun-2013 ✈ KBTV - KDTW

Flight Track Log - Related Links

Times and Time Zones

All times are in EDT time to prevent confusion due to time zone crossing. See the FLG4099 flight status page for this flight to view local times or setup timezone preferences in your user account.

Time Position Orientation Groundspeed Altitude Reporting Facility
EDT Latitude Longitude Course Direction KTS MPH feet Rate Location/Type
09:19AM 44.4016 -73.5371 253° West  Level FlightAware Approximate
09:19AM 44.3406 -73.1367 256° West 222 255 6,400  Level Boston Center
09:20AM 44.3744 -73.6643 253° West  Level FlightAware Approximate
09:20AM 44.3272 -73.2353 259° West 264 304 9,200  Level Boston Center
09:21AM 44.3534 -73.7936 259° West  Level FlightAware Approximate
09:21AM 44.3142 -73.3367 260° West 264 304 11,300  Level Boston Center
09:22AM 44.3347 -73.9238 259° West  Level FlightAware Approximate
09:22AM 44.3006 -73.4494 260° West 285 328 12,800  Level Boston Center
09:23AM 44.3115 -74.0524 256° West  Level FlightAware Approximate
09:23AM 44.2869 -73.5739 261° West 313 360 14,300  Level Boston Center
09:24AM 44.2878 -74.1808 256° West  Level FlightAware Approximate
09:24AM 44.2711 -73.7011 260° West 330 380 16,100  Level Boston Center
09:25AM 44.2550 -73.8283 260° West 330 380 17,700 1,320 Climbing Boston Center
09:26AM 44.2389 -73.9528 260° West 330 380 18,800 1,020 Climbing Boston Center
09:27AM 44.2225 -74.0825 260° West 335 386 19,800 840 Climbing Boston Center
09:28AM 44.2039 -74.2153 259° West 340 391 20,500 840 Climbing Boston Center
09:29AM 44.1869 -74.3597 261° West 361 415 21,500 1,020 Climbing Boston Center
09:30AM 44.1681 -74.4950 259° West 361 415 22,600 1,020 Climbing Boston Center
09:31AM 44.1508 -74.6306 260° West 366 421 23,600 900 Climbing Boston Center
09:32AM 44.1356 -74.7689 261° West 366 421 24,500 780 Climbing Boston Center
09:33AM 44.1139 -74.9097 258° West 371 427 25,200 600 Climbing Boston Center
09:34AM 44.0961 -75.0506 260° West 371 427 25,700 480 Climbing Boston Center
09:35AM 44.0761 -75.1942 259° West 371 427 26,200 480 Climbing Boston Center
09:36AM 44.0561 -75.3378 259° West 371 427 26,700 540 Climbing Boston Center
09:37AM 44.0331 -75.4983 259° West 385 443 27,300 540 Climbing Boston Center
09:38AM 44.0144 -75.6447 260° West 390 449 27,800 300 Climbing Boston Center
09:39AM 43.9936 -75.7908 259° West 390 449 28,000 60 Climbing Boston Center
09:40AM 43.9725 -75.9425 259° West 390 449 28,000  Level Boston Center
09:41AM 43.9550 -76.0975 261° West 400 460 28,000  Level Boston Center
09:42AM 43.9531 -76.2242 269° West 405 466 28,000  Level Boston Center
09:43AM 43.9447 -76.4111 267° West 405 466 28,000  Level Boston Center
09:44AM 43.9433 -76.5697 269° West 405 466 28,000  Level Boston Center
09:45AM 43.9333 -76.6667 262° West 410 472 28,000  Level Toronto Center
09:46AM 43.9167 -76.8167 261° West 410 472 28,000  Level Toronto Center
09:47AM 43.9167 -76.9667 270° West 420 483 28,000  Level Toronto Center
09:48AM 43.9000 -77.1333 262° West 420 483 28,000  Level Toronto Center
09:49AM 43.9000 -77.3000 270° West 420 483 28,000  Level Toronto Center
09:50AM 43.9000 -77.4500 270° West 420 483 28,000  Level Toronto Center
09:51AM 43.9000 -77.6167 270° West 420 483 28,000  Level Toronto Center
09:52AM 43.8833 -77.7833 262° West 420 483 28,000  Level Toronto Center
09:53AM 43.8833 -77.9500 270° West 420 483 28,000  Level Toronto Center
09:54AM 43.8667 -78.1000 261° West 430 495 28,000  Level Toronto Center
09:55AM 43.8667 -78.2833 270° West 430 495 28,000  Level Toronto Center
09:56AM 43.8500 -78.4333 261° West 430 495 28,000  Level Toronto Center
09:57AM 43.8667 -78.6000 278° West 430 495 28,000  Level Toronto Center
09:58AM 43.8500 -78.7833 263° West 430 495 28,000  Level Toronto Center
09:59AM 43.7833 -78.9167 235° Southwest 440 506 28,000  Level Toronto Center
10:00AM 43.7167 -79.0500 235° Southwest 450 518 28,000  Level Toronto Center
10:01AM 43.6333 -79.2000 233° Southwest 450 518 28,000  Level Toronto Center
10:02AM 43.5667 -79.3333 235° Southwest 450 518 28,000  Level Toronto Center
10:03AM 43.4833 -79.4667 229° Southwest 450 518 28,000  Level Toronto Center
10:04AM 43.4167 -79.6167 239° Southwest 450 518 28,000 -240 Level Toronto Center
10:06AM 43.2667 -79.8833 232° Southwest 450 518 27,300 -540 Descending Toronto Center
10:07AM 43.1833 -80.0167 229° Southwest 460 529 26,400 -900 Descending Toronto Center
10:08AM 43.1000 -80.1500 229° Southwest 460 529 25,600 -660 Descending Toronto Center
10:09AM 43.0333 -80.2667 232° Southwest 430 495 25,100 -660 Descending Toronto Center
10:10AM 42.9667 -80.4000 236° Southwest 400 460 24,300 -840 Descending Toronto Center
10:11AM 42.9000 -80.5167 232° Southwest 400 460 23,500 -660 Descending Toronto Center
10:12AM 42.8333 -80.6333 232° Southwest 390 449 23,000 -300 Descending Toronto Center
10:13AM 42.7833 -80.7500 240° Southwest 380 437 23,000  Level Toronto Center
10:14AM 42.7000 -80.8500 221° Southwest 380 437 23,000 -480 Level Toronto Center
10:15AM 42.6667 -81.0000 253° West 390 449 22,100 -1,020 Descending Toronto Center
10:16AM 42.6667 -81.1333 270° West 380 437 21,000 -600 Descending Toronto Center
10:17AM 42.6500 -81.2833 261° West 370 426 21,000 -120 Level Toronto Center
10:18AM 42.6333 -81.4167 260° West 370 426 20,800 -900 Descending Toronto Center
10:19AM 42.6167 -81.5667 261° West 370 426 19,200 -1,500 Descending Toronto Center
10:20AM 42.6000 -81.7000 260° West 370 426 17,800 -1,140 Descending Toronto Center
10:21AM 42.5833 -81.8333 260° West 360 414 17,000 -420 Descending Toronto Center
10:22AM 42.5667 -81.9667 260° West 350 403 17,000  Level Toronto Center
10:23AM 42.5500 -82.0833 259° West 350 403 17,000 -600 Level Toronto Center
10:24AM 42.5333 -82.2167 260° West 360 414 15,800 -1,260 Descending Toronto Center
10:25AM 42.5500 -82.3500 280° West 330 380 14,500 -1,320 Descending Toronto Center
10:26AM 42.5333 -82.4333 255° West 290 334 13,200 -1,320 Descending Toronto Center
10:27AM 42.5000 -82.5500 249° West 290 334 11,900 -1,440 Descending Toronto Center
10:28AM 42.4500 -82.6333 231° Southwest 290 334 10,400 -1,440 Descending Toronto Center
10:29AM 42.4167 -82.7333 246° West 280 322 9,100 -1,200 Descending Toronto Center
10:30AM 42.3833 -82.8167 242° Southwest 280 322 8,100 -960 Descending Toronto Center
10:31AM 42.3833 -82.9333 270° West 260 299 7,200 -960 Descending Toronto Center
10:32AM 42.4000 -83.0000 289° West 230 265 6,200 -960 Descending Toronto Center
10:33AM 42.4092 -83.1197 276° West 231 266 5,000 -960 Descending Cleveland Center
10:34AM 42.3931 -83.1950 254° West 226 260 4,000 -1,020 Descending Cleveland Center